createdAt,value
2023-02-14T00:02:21.853Z,102550.66
2023-02-14T00:05:23.364Z,102548.94
2023-02-14T00:08:24.866Z,102550.00
2023-02-14T00:11:26.394Z,102555.44
2023-02-14T00:14:46.407Z,102558.25
2023-02-14T00:17:49.666Z,102558.34
2023-02-14T00:20:51.344Z,102551.28
2023-02-14T00:23:52.834Z,102551.41
2023-02-14T00:26:54.587Z,102552.38
2023-02-14T00:29:58.207Z,102544.34
2023-02-14T00:32:59.729Z,102544.44
2023-02-14T00:36:04.110Z,102549.88
2023-02-14T00:39:07.716Z,102550.00
2023-02-14T00:42:13.607Z,102551.06
2023-02-14T00:45:18.865Z,102551.06
2023-02-14T00:48:20.394Z,102542.94
2023-02-14T00:51:22.501Z,102543.91
2023-02-14T00:54:24.883Z,102553.03
2023-02-14T00:57:26.640Z,102568.31
2023-02-14T01:00:28.131Z,102564.72
2023-02-14T01:03:30.759Z,102557.47
2023-02-14T01:06:32.275Z,102564.72
2023-02-14T01:09:33.909Z,102569.16
2023-02-14T01:12:36.819Z,102561.03
2023-02-14T01:15:44.226Z,102565.59
2023-02-14T01:18:46.376Z,102572.88
2023-02-14T01:21:47.850Z,102558.44
2023-02-14T01:24:49.360Z,102563.00
2023-02-14T01:27:50.936Z,102554.97
2023-02-14T01:30:52.421Z,102549.53
2023-02-14T01:33:55.080Z,102557.69
2023-02-14T01:36:56.576Z,102564.09
2023-02-14T01:39:58.074Z,102556.03
2023-02-14T01:42:59.561Z,102555.19
2023-02-14T01:46:01.190Z,102549.75
2023-02-14T01:49:13.224Z,102556.13
2023-02-14T01:52:20.603Z,102557.97
2023-02-14T01:55:26.828Z,102559.84
2023-02-14T01:58:34.849Z,102558.19
2023-02-14T02:01:36.608Z,102553.00
2023-02-14T02:04:40.620Z,102548.44
2023-02-14T02:07:42.374Z,102542.25
2023-02-14T02:10:43.867Z,102544.09
2023-02-14T02:13:45.324Z,102541.47
2023-02-14T02:17:20.492Z,102541.47
2023-02-14T02:20:29.001Z,102534.41
2023-02-14T02:23:41.262Z,102531.69
2023-02-14T02:27:08.525Z,102526.41
2023-02-14T02:30:34.748Z,102520.84
2023-02-14T02:33:45.299Z,102511.09
2023-02-14T02:37:05.482Z,102506.56
2023-02-14T02:40:33.254Z,102502.94
2023-02-14T02:44:08.868Z,102501.88
2023-02-14T02:47:23.551Z,102488.44
2023-02-14T02:51:10.666Z,102489.41
2023-02-14T02:54:23.450Z,102487.47
2023-02-14T02:57:31.588Z,102483.03
2023-02-14T03:00:33.575Z,102479.44
2023-02-14T03:03:55.815Z,102480.31
2023-02-14T03:06:58.586Z,102477.59
2023-02-14T03:10:21.392Z,102480.19
2023-02-14T03:13:29.021Z,102475.84
2023-02-14T03:16:34.627Z,102477.59
2023-02-14T03:20:15.043Z,102481.25
2023-02-14T03:23:35.942Z,102476.81
2023-02-14T03:26:51.543Z,102468.78
2023-02-14T03:30:02.209Z,102465.34
2023-02-14T03:33:27.474Z,102463.50
2023-02-14T03:36:56.486Z,102455.34
2023-02-14T03:40:04.661Z,102453.59
2023-02-14T03:43:10.323Z,102451.97
2023-02-14T03:46:23.379Z,102442.97
2023-02-14T03:49:30.718Z,102440.38
2023-02-14T03:52:34.476Z,102448.53
2023-02-14T03:56:02.315Z,102448.63
2023-02-14T03:59:20.539Z,102448.63
2023-02-14T04:02:50.854Z,102443.19
2023-02-14T04:05:52.709Z,102446.00
2023-02-14T04:08:54.256Z,102443.28
2023-02-14T04:11:56.115Z,102444.06
2023-02-14T04:14:57.607Z,102440.38
2023-02-14T04:18:18.022Z,102438.53
2023-02-14T04:21:19.576Z,102430.19
2023-02-14T04:24:21.125Z,102428.25
2023-02-14T04:27:22.596Z,102425.41
2023-02-14T04:30:24.175Z,102425.22
2023-02-14T04:33:25.741Z,102430.41
2023-02-14T04:36:27.201Z,102425.75
2023-02-14T04:39:29.047Z,102428.25
2023-02-14T04:42:30.601Z,102429.97
2023-02-14T04:45:32.133Z,102422.59
2023-02-14T04:48:33.627Z,102421.75
2023-02-14T04:51:35.133Z,102418.03
2023-02-14T04:54:36.636Z,102418.03
2023-02-14T04:57:38.153Z,102416.31
2023-02-14T05:00:39.640Z,102418.03
2023-02-14T05:03:41.110Z,102429.75
2023-02-14T05:06:42.628Z,102423.47
2023-02-14T05:09:44.147Z,102423.47
2023-02-14T05:12:45.675Z,102416.31
2023-02-14T05:15:47.234Z,102416.31
2023-02-14T05:18:48.909Z,102416.31
2023-02-14T05:21:50.410Z,102415.56
2023-02-14T05:24:51.938Z,102407.41
2023-02-14T05:27:53.458Z,102410.22
2023-02-14T05:30:56.890Z,102418.34
2023-02-14T05:33:58.443Z,102408.50
2023-02-14T05:37:00.001Z,102414.03
2023-02-14T05:40:01.537Z,102417.72
2023-02-14T05:43:03.016Z,102418.72
2023-02-14T05:46:04.835Z,102426.06
2023-02-14T05:49:06.351Z,102428.03
2023-02-14T05:52:07.804Z,102424.44
2023-02-14T05:55:10.268Z,102424.53
2023-02-14T05:58:12.539Z,102422.81
2023-02-14T06:01:14.305Z,102421.97
2023-02-14T06:04:15.808Z,102420.97
2023-02-14T06:07:17.666Z,102420.88
2023-02-14T06:10:25.526Z,102414.38
2023-02-14T06:13:27.019Z,102417.94
2023-02-14T06:16:28.657Z,102419.56
2023-02-14T06:19:30.174Z,102420.44
2023-02-14T06:22:31.702Z,102422.91
2023-02-14T06:25:33.348Z,102428.25
2023-02-14T06:28:34.851Z,102422.59
2023-02-14T06:31:36.466Z,102425.31
2023-02-14T06:34:39.790Z,102430.66
2023-02-14T06:37:42.210Z,102428.78
2023-02-14T06:40:43.794Z,102436.94
2023-02-14T06:43:48.578Z,102433.34
2023-02-14T06:46:50.115Z,102437.88
2023-02-14T06:49:51.566Z,102447.88
2023-02-14T06:52:53.057Z,102444.22
2023-02-14T06:55:54.860Z,102444.22
2023-02-14T06:58:56.303Z,102442.56
2023-02-14T07:01:57.860Z,102438.97
2023-02-14T07:04:59.354Z,102439.97
2023-02-14T07:08:01.191Z,102441.81
2023-02-14T07:11:03.063Z,102439.31
2023-02-14T07:14:04.736Z,102436.59
2023-02-14T07:17:06.245Z,102441.13
2023-02-14T07:20:09.264Z,102441.25
2023-02-14T07:23:11.073Z,102434.22
2023-02-14T07:26:17.830Z,102437.88
2023-02-14T07:29:19.344Z,102437.00
2023-02-14T07:32:21.050Z,102434.44
2023-02-14T07:35:22.822Z,102430.81
2023-02-14T07:38:24.747Z,102434.63
2023-02-14T07:41:26.191Z,102429.31
2023-02-14T07:44:27.738Z,102429.31
2023-02-14T07:47:29.245Z,102429.41
2023-02-14T07:50:30.853Z,102434.97
2023-02-14T07:53:32.448Z,102433.22
2023-02-14T07:56:33.999Z,102429.72
2023-02-14T07:59:35.538Z,102422.59
2023-02-14T08:02:37.087Z,102432.66
2023-02-14T08:05:38.968Z,102427.25
2023-02-14T08:08:40.459Z,102431.91
2023-02-14T08:12:00.542Z,102436.56
2023-02-14T08:15:22.032Z,102432.03
2023-02-14T08:18:23.586Z,102433.97
2023-02-14T08:21:25.169Z,102427.56
2023-02-14T08:24:26.743Z,102432.22
2023-02-14T08:27:28.197Z,102429.63
2023-02-14T08:30:30.440Z,102431.34
2023-02-14T08:33:32.464Z,102425.06
2023-02-14T08:36:34.922Z,102421.41
2023-02-14T08:39:36.433Z,102421.41
2023-02-14T08:42:38.053Z,102424.97
2023-02-14T08:45:40.155Z,102423.97
2023-02-14T08:48:41.737Z,102427.69
2023-02-14T08:51:43.264Z,102417.69
2023-02-14T08:54:44.868Z,102419.41
2023-02-14T08:57:46.431Z,102417.69
2023-02-14T09:00:47.961Z,102407.72
2023-02-14T09:03:49.707Z,102405.00
2023-02-14T09:06:51.272Z,102396.00
2023-02-14T09:09:52.856Z,102403.28
2023-02-14T09:12:54.404Z,102399.59
2023-02-14T09:15:55.918Z,102399.72
2023-02-14T09:18:57.472Z,102401.44
2023-02-14T09:21:59.046Z,102406.00
2023-02-14T09:25:01.010Z,102405.13
2023-02-14T09:28:02.480Z,102399.81
2023-02-14T09:31:15.943Z,102409.78
2023-02-14T09:34:17.474Z,102410.75
2023-02-14T09:37:37.362Z,102412.59
2023-02-14T09:40:38.987Z,102402.59
2023-02-14T09:44:17.022Z,102414.22
2023-02-14T09:47:42.322Z,102409.66
2023-02-14T09:50:49.594Z,102399.72
2023-02-14T09:54:00.598Z,102398.63
2023-02-14T09:57:21.731Z,102398.41
2023-02-14T10:00:34.500Z,102406.41
2023-02-14T10:03:54.620Z,102402.75
2023-02-14T10:07:23.237Z,102391.69
2023-02-14T10:10:30.938Z,102392.53
2023-02-14T10:13:42.015Z,102397.88
2023-02-14T10:16:53.601Z,102388.75
2023-02-14T10:20:01.797Z,102389.53
2023-02-14T10:23:17.429Z,102387.66
2023-02-14T10:26:27.615Z,102390.28
2023-02-14T10:29:29.403Z,102392.00
2023-02-14T10:32:38.270Z,102382.91
2023-02-14T10:35:50.537Z,102387.25
2023-02-14T10:39:25.443Z,102381.84
2023-02-14T10:42:52.155Z,102379.00
2023-02-14T10:46:18.279Z,102382.56
2023-02-14T10:49:19.812Z,102377.28
2023-02-14T10:52:34.320Z,102377.13
2023-02-14T10:55:56.767Z,102373.47
2023-02-14T10:59:02.715Z,102379.75
2023-02-14T11:02:06.268Z,102366.19
2023-02-14T11:05:17.817Z,102368.91
2023-02-14T11:08:22.983Z,102359.78
2023-02-14T11:11:30.447Z,102356.13
2023-02-14T11:14:35.844Z,102356.13
2023-02-14T11:17:37.929Z,102350.69
2023-02-14T11:20:39.374Z,102348.94
2023-02-14T11:23:42.467Z,102337.13
2023-02-14T11:26:49.972Z,102336.16
2023-02-14T11:29:54.056Z,102331.72
2023-02-14T11:32:56.420Z,102330.72
2023-02-14T11:35:58.624Z,102328.88
2023-02-14T11:39:20.859Z,102323.44
2023-02-14T11:42:38.582Z,102323.34
2023-02-14T11:45:45.473Z,102316.22
2023-02-14T11:49:04.881Z,102323.34
2023-02-14T11:52:15.850Z,102320.63
2023-02-14T11:55:35.590Z,102313.81
2023-02-14T11:58:43.224Z,102310.03
2023-02-14T12:01:46.493Z,102314.16
2023-02-14T12:04:52.820Z,102308.09
2023-02-14T12:07:57.545Z,102308.41
2023-02-14T12:11:17.630Z,102298.22
2023-02-14T12:14:23.529Z,102294.00
2023-02-14T12:17:37.490Z,102282.41
2023-02-14T12:20:49.330Z,102276.31
2023-02-14T12:23:51.165Z,102280.09
2023-02-14T12:27:24.608Z,102268.19
2023-02-14T12:30:31.077Z,102266.38
2023-02-14T12:33:32.579Z,102270.81
2023-02-14T12:36:52.671Z,102266.16
2023-02-14T12:40:10.826Z,102260.72
2023-02-14T12:43:54.138Z,102256.25
2023-02-14T12:47:15.159Z,102251.94
2023-02-14T12:50:16.704Z,102254.88
2023-02-14T12:53:27.318Z,102243.25
2023-02-14T12:56:56.494Z,102245.25
2023-02-14T13:00:09.962Z,102234.59
2023-02-14T13:03:20.552Z,102237.44
2023-02-14T13:06:29.373Z,102227.75
2023-02-14T13:09:49.260Z,102223.31
2023-02-14T13:13:01.004Z,102228.81
2023-02-14T13:16:35.254Z,102218.84
2023-02-14T13:20:04.051Z,102217.00
2023-02-14T13:23:13.507Z,102209.75
2023-02-14T13:26:20.282Z,102208.88
2023-02-14T13:29:28.875Z,102204.13
2023-02-14T13:32:36.855Z,102193.19
2023-02-14T13:35:39.599Z,102195.81
2023-02-14T13:41:56.702Z,102194.72
2023-02-14T13:44:58.374Z,102186.50
2023-02-14T13:48:26.760Z,102182.69
2023-02-14T13:51:46.195Z,102179.84
2023-02-14T13:54:48.611Z,102179.84
2023-02-14T13:58:17.118Z,102174.25
2023-02-14T14:01:33.943Z,102160.56
2023-02-14T14:04:37.371Z,102166.84
2023-02-14T14:07:38.930Z,102169.56
2023-02-14T14:10:55.543Z,102171.16
2023-02-14T14:13:59.502Z,102167.59
2023-02-14T14:17:01.078Z,102166.66
2023-02-14T14:20:20.609Z,102172.78
2023-02-14T14:23:30.112Z,102161.09
2023-02-14T14:26:44.786Z,102170.97
2023-02-14T14:29:49.947Z,102165.44
2023-02-14T14:32:51.696Z,102161.00
2023-02-14T14:35:59.777Z,102156.22
2023-02-14T14:39:01.665Z,102155.44
2023-02-14T14:42:09.720Z,102156.22
2023-02-14T14:45:24.772Z,102152.53
2023-02-14T14:48:45.488Z,102151.53
2023-02-14T14:51:48.463Z,102149.47
2023-02-14T14:54:50.030Z,102141.34
2023-02-14T14:57:56.709Z,102140.47
2023-02-14T15:00:58.318Z,102143.31
2023-02-14T15:04:25.511Z,102138.00
2023-02-14T15:07:32.720Z,102136.28
2023-02-14T15:10:34.972Z,102129.97
2023-02-14T15:13:53.486Z,102124.53
2023-02-14T15:17:00.517Z,102130.09
2023-02-14T15:20:09.760Z,102117.50
2023-02-14T15:23:19.766Z,102126.63
2023-02-14T15:26:31.521Z,102123.06
2023-02-14T15:29:33.487Z,102117.75
2023-02-14T15:32:37.148Z,102124.16
2023-02-14T15:35:43.897Z,102119.59
2023-02-14T15:38:45.675Z,102122.41
2023-02-14T15:41:47.188Z,102107.13
2023-02-14T15:44:48.972Z,102099.88
2023-02-14T15:47:56.971Z,102100.72
2023-02-14T15:51:01.412Z,102098.78
2023-02-14T15:54:21.354Z,102100.53
2023-02-14T15:57:26.329Z,102106.66
2023-02-14T16:00:28.128Z,102103.00
2023-02-14T16:03:33.873Z,102100.06
2023-02-14T16:06:44.726Z,102107.09
2023-02-14T16:09:48.046Z,102113.38
2023-02-14T16:12:59.383Z,102105.00
2023-02-14T16:16:04.175Z,102107.63
2023-02-14T16:19:32.400Z,102106.53
2023-02-14T16:22:33.868Z,102101.97
2023-02-14T16:25:35.368Z,102110.84
2023-02-14T16:28:37.636Z,102111.59
2023-02-14T16:32:06.135Z,102103.25
2023-02-14T16:35:05.423Z,102108.56
2023-02-14T16:38:12.465Z,102101.91
2023-02-14T16:41:20.116Z,102100.81
2023-02-14T16:44:22.463Z,102100.81
2023-02-14T16:47:27.599Z,102105.28
2023-02-14T16:50:29.162Z,102107.00
2023-02-14T16:53:31.673Z,102103.19
2023-02-14T16:56:37.034Z,102099.47
2023-02-14T16:59:38.500Z,102101.34
2023-02-14T17:02:41.415Z,102104.03
2023-02-14T17:05:44.876Z,102104.03
2023-02-14T17:08:49.599Z,102116.63
2023-02-14T17:11:53.825Z,102115.66
2023-02-14T17:14:59.313Z,102121.06
2023-02-14T17:18:08.719Z,102121.94
2023-02-14T17:21:10.322Z,102115.66
2023-02-14T17:24:11.838Z,102111.94
2023-02-14T17:27:15.454Z,102110.13
2023-02-14T17:30:17.657Z,102108.13
2023-02-14T17:33:20.035Z,102096.31
2023-02-14T17:36:23.288Z,102089.91
2023-02-14T17:39:24.846Z,102095.31
2023-02-14T17:42:26.334Z,102103.22
2023-02-14T17:45:27.956Z,102101.41
2023-02-14T17:48:29.455Z,102105.84
2023-02-14T17:51:30.989Z,102099.56
2023-02-14T17:54:36.938Z,102096.69
2023-02-14T17:57:40.820Z,102097.59
2023-02-14T18:00:43.152Z,102094.88
2023-02-14T18:03:45.170Z,102097.59
2023-02-14T18:06:46.746Z,102090.31
2023-02-14T18:09:48.212Z,102091.19
2023-02-14T18:12:49.729Z,102088.47
2023-02-14T18:15:52.855Z,102081.19
2023-02-14T18:18:54.928Z,102081.19
2023-02-14T18:21:56.442Z,102082.19
2023-02-14T18:24:58.765Z,102086.50
2023-02-14T18:28:00.350Z,102081.19
2023-02-14T18:31:28.363Z,102080.22
2023-02-14T18:34:30.020Z,102083.91
2023-02-14T18:37:31.502Z,102076.75
2023-02-14T18:40:33.264Z,102083.03
2023-02-14T18:43:35.614Z,102076.75
2023-02-14T18:46:37.410Z,102073.06
2023-02-14T18:49:38.920Z,102070.47
2023-02-14T18:52:40.451Z,102074.91
2023-02-14T18:55:41.922Z,102064.06
2023-02-14T18:58:50.480Z,102055.91
2023-02-14T19:01:52.083Z,102058.63
2023-02-14T19:04:53.894Z,102046.94
2023-02-14T19:07:58.044Z,102046.78
2023-02-14T19:10:59.857Z,102038.66
2023-02-14T19:14:05.142Z,102032.25
2023-02-14T19:17:07.000Z,102028.69
2023-02-14T19:20:09.027Z,102034.97
2023-02-14T19:23:10.591Z,102021.41
2023-02-14T19:26:18.120Z,102025.84
2023-02-14T19:29:20.998Z,102028.56
2023-02-14T19:32:22.546Z,102024.00
2023-02-14T19:35:24.239Z,102023.13
2023-02-14T19:38:26.897Z,102025.84
2023-02-14T19:41:31.503Z,102024.00
2023-02-14T19:44:33.046Z,102023.13
2023-02-14T19:47:46.799Z,102025.75
2023-02-14T19:50:49.600Z,102029.31
2023-02-14T19:53:52.369Z,102031.03
2023-02-14T19:56:56.036Z,102020.19
2023-02-14T19:59:57.659Z,102025.50
2023-02-14T20:03:02.330Z,102015.50
2023-02-14T20:06:04.019Z,102016.34
2023-02-14T20:09:06.112Z,102009.97
2023-02-14T20:12:07.729Z,102008.97
2023-02-14T20:15:10.971Z,102009.84
2023-02-14T20:18:12.585Z,102013.28
2023-02-14T20:21:28.250Z,102004.91
2023-02-14T20:24:31.776Z,102000.38
2023-02-14T20:27:33.243Z,101995.06
2023-02-14T20:30:34.769Z,101986.91
2023-02-14T20:33:36.735Z,101985.06
2023-02-14T20:36:38.651Z,101986.91
2023-02-14T20:39:40.650Z,101980.50
2023-02-14T20:42:42.314Z,101981.38
2023-02-14T20:45:43.955Z,101973.25
2023-02-14T20:48:45.509Z,101972.34
2023-02-14T20:51:49.603Z,101965.81
2023-02-14T20:54:51.373Z,101964.97
2023-02-14T20:57:53.452Z,101964.97
2023-02-14T21:00:56.368Z,101985.72
2023-02-14T21:03:58.013Z,101973.00
2023-02-14T21:07:03.921Z,101973.75
2023-02-14T21:10:07.204Z,101962.75
2023-02-14T21:13:08.705Z,101969.19
2023-02-14T21:16:16.234Z,101967.22
2023-02-14T21:19:17.743Z,101962.75
2023-02-14T21:22:19.259Z,101961.78
2023-02-14T21:25:23.397Z,101958.19
2023-02-14T21:28:25.815Z,101964.50
2023-02-14T21:31:27.724Z,101961.78
2023-02-14T21:34:29.318Z,101951.78
2023-02-14T21:37:32.216Z,101953.41
2023-02-14T21:40:33.701Z,101951.66
2023-02-14T21:43:37.237Z,101950.53
2023-02-14T21:46:39.335Z,101951.53
2023-02-14T21:49:59.145Z,101943.41
2023-02-14T21:53:00.629Z,101937.97
2023-02-14T21:56:05.260Z,101929.84
2023-02-14T21:59:07.542Z,101927.88
2023-02-14T22:02:11.236Z,101928.72
2023-02-14T22:05:12.683Z,101931.44
2023-02-14T22:08:14.157Z,101928.72
2023-02-14T22:11:15.785Z,101920.59
2023-02-14T22:14:17.454Z,101924.16
2023-02-14T22:17:18.909Z,101932.31
2023-02-14T22:20:20.385Z,101924.06
2023-02-14T22:23:24.536Z,101919.72
2023-02-14T22:26:28.689Z,101923.31
2023-02-14T22:29:30.232Z,101920.69
2023-02-14T22:32:31.957Z,101917.13
2023-02-14T22:35:33.439Z,101929.84
2023-02-14T22:38:36.224Z,101929.84
2023-02-14T22:41:37.950Z,101920.00
2023-02-14T22:44:39.529Z,101920.84
2023-02-14T22:47:40.989Z,101914.56
2023-02-14T22:50:42.483Z,101912.72
2023-02-14T22:53:43.961Z,101912.81
2023-02-14T22:56:47.681Z,101911.84
2023-02-14T22:59:49.154Z,101911.97
2023-02-14T23:02:50.716Z,101913.81
2023-02-14T23:05:58.527Z,101917.50
2023-02-14T23:09:00.916Z,101920.34
2023-02-14T23:12:02.396Z,101919.59
2023-02-14T23:15:22.357Z,101912.31
2023-02-14T23:18:42.211Z,101901.63
2023-02-14T23:21:55.754Z,101898.91
2023-02-14T23:24:59.519Z,101904.44
2023-02-14T23:28:01.070Z,101897.41
2023-02-14T23:31:02.928Z,101903.81
2023-02-14T23:34:04.646Z,101903.94
2023-02-14T23:37:06.667Z,101904.03
2023-02-14T23:40:09.749Z,101906.91
2023-02-14T23:43:11.248Z,101902.44
2023-02-14T23:46:12.755Z,101904.44
2023-02-14T23:49:15.234Z,101902.69
2023-02-14T23:52:16.698Z,101894.69
2023-02-14T23:55:18.171Z,101885.81
2023-02-14T23:58:19.649Z,101890.38
